Barryton, Michigan
Current Conditions -  °F | °C
As of 6:54 PM on Sunday 21 Dec 2014 (Local Time) from KRQB Reporting Station
Overcast Overcast  
Wind Chill: 26°   Ceiling: 3300
Heat Index: 32°   Visibility: 7mi
Dew Point: 28°   Wind: 7mph
Humidity: 87%   Direction: 150°SSE
Pressure: 30.13"   Gusts: NA
Location:  43.75°N, 85.15°W
Report Text: KRQB 212354Z AUTO 15006KT 7SM BKN033 OVC038 00/M02 A3013 RMK AO2 T00001020 10002 20000
Loading
Personal Weather Stations






























Interactive Weather Map New forecast layout! Learn more

10-Day Weather Forecast

Advertisements
Track Severe Weather on mobile